Petrozavodsk, Russia
Current Conditions -  °F | °C
As of 9:00 PM on Friday 28 Nov 2014 (Local Time) from ULPB Reporting Station
NA  
Wind Chill: 19°   Ceiling: NA
Heat Index: 19°   Visibility: 6mi
Dew Point: 19°   Wind: 2mph
Humidity: 100%   Direction: NA
Pressure: 30.59"   Gusts: NA
Location:  61.82°N, 34.33°E
Report Text: ULPB 281800Z AUTO VRB01MPS 9999 ////// M07/M07 Q1036
Loading
Personal Weather Stations






























Interactive Weather Map New forecast layout! Learn more

10-Day Weather Forecast

Advertisements
Track Severe Weather on mobile